createdAt,value
2018-01-02T00:01:49.171Z,0.60
2018-01-02T00:04:16.599Z,0.90
2018-01-02T00:06:44.030Z,0.80
2018-01-02T00:09:11.456Z,0.67
2018-01-02T00:11:38.880Z,0.70
2018-01-02T00:14:07.071Z,0.70
2018-01-02T00:16:34.491Z,0.70
2018-01-02T00:19:01.922Z,0.70
2018-01-02T00:21:29.354Z,0.70
2018-01-02T00:23:56.781Z,0.60
2018-01-02T00:26:24.973Z,0.63
2018-01-02T00:28:52.394Z,0.60
2018-01-02T00:31:19.824Z,0.50
2018-01-02T00:33:48.240Z,0.50
2018-01-02T00:36:15.657Z,0.70
2018-01-02T00:38:43.107Z,0.40
2018-01-02T00:41:10.520Z,0.70
2018-01-02T00:43:38.714Z,0.60
2018-01-02T00:46:06.134Z,0.60
2018-01-02T00:48:33.563Z,0.53
2018-01-02T00:51:00.981Z,0.60
2018-01-02T00:53:28.423Z,0.57
2018-01-02T00:55:56.613Z,0.50
2018-01-02T00:58:24.038Z,0.60
2018-01-02T01:00:51.461Z,0.80
2018-01-02T01:03:18.896Z,0.50
2018-01-02T01:05:47.329Z,0.60
2018-01-02T01:08:14.764Z,0.70
2018-01-02T01:10:42.183Z,0.60
2018-01-02T01:13:09.611Z,0.73
2018-01-02T01:15:37.808Z,0.60
2018-01-02T01:18:05.273Z,0.50
2018-01-02T01:20:33.427Z,0.60
2018-01-02T01:23:01.631Z,0.60
2018-01-02T01:25:29.048Z,1.00
2018-01-02T01:27:57.249Z,0.70
2018-01-02T01:30:24.675Z,0.83
2018-01-02T01:32:52.868Z,0.70
2018-01-02T01:35:20.300Z,0.67
2018-01-02T01:37:47.719Z,0.80
2018-01-02T01:40:15.147Z,0.80
2018-01-02T01:42:42.584Z,0.83
2018-01-02T01:45:10.785Z,0.90
2018-01-02T01:47:38.203Z,0.80
2018-01-02T01:50:05.633Z,2.30
2018-01-02T01:52:33.051Z,1.20
2018-01-02T01:55:00.488Z,1.10
2018-01-02T01:57:28.692Z,1.00
2018-01-02T01:59:56.128Z,1.13
2018-01-02T02:02:24.312Z,1.20
2018-01-02T02:04:51.739Z,1.00
2018-01-02T02:07:19.164Z,1.00
2018-01-02T02:09:46.601Z,1.13
2018-01-02T02:12:14.039Z,1.17
2018-01-02T02:14:41.471Z,1.20
2018-01-02T02:17:09.662Z,1.40
2018-01-02T02:19:37.098Z,1.53
2018-01-02T02:22:04.511Z,1.10
2018-01-02T02:24:31.955Z,1.37
2018-01-02T02:26:59.370Z,1.20
2018-01-02T02:29:27.563Z,1.03
2018-01-02T02:31:55.018Z,1.10
2018-01-02T02:34:22.411Z,1.20
2018-01-02T02:36:49.850Z,1.40
2018-01-02T02:39:17.271Z,1.00
2018-01-02T02:41:45.468Z,1.10
2018-01-02T02:44:12.892Z,1.10
2018-01-02T02:46:40.316Z,1.17
2018-01-02T02:49:07.759Z,1.30
2018-01-02T02:51:35.181Z,1.00
2018-01-02T02:54:03.387Z,1.00
2018-01-02T02:56:30.798Z,1.10
2018-01-02T02:58:58.228Z,0.80
2018-01-02T03:01:25.664Z,1.10
2018-01-02T03:03:53.953Z,0.90
2018-01-02T03:06:21.371Z,0.70
2018-01-02T03:08:48.795Z,0.80
2018-01-02T03:11:16.214Z,0.90
2018-01-02T03:13:43.649Z,1.10
2018-01-02T03:16:11.066Z,0.80
2018-01-02T03:18:38.500Z,1.00
2018-01-02T03:21:05.919Z,1.00
2018-01-02T03:23:33.341Z,1.00
2018-01-02T03:26:01.537Z,0.90
2018-01-02T03:28:29.736Z,0.80
2018-01-02T03:30:57.166Z,0.90
2018-01-02T03:33:25.368Z,0.80
2018-01-02T03:35:52.793Z,0.97
2018-01-02T03:38:21.000Z,0.80
2018-01-02T03:40:48.422Z,0.80
2018-01-02T03:43:16.605Z,1.10
2018-01-02T03:45:44.805Z,0.73
2018-01-02T03:48:12.221Z,1.00
2018-01-02T03:50:40.420Z,0.97
2018-01-02T03:53:07.844Z,1.10
2018-01-02T03:55:35.275Z,1.33
2018-01-02T03:58:03.455Z,0.87
2018-01-02T04:00:30.888Z,1.00
2018-01-02T04:02:58.302Z,1.00
2018-01-02T04:05:26.508Z,0.80
2018-01-02T04:07:53.929Z,0.90
2018-01-02T04:10:22.124Z,0.77
2018-01-02T04:12:49.548Z,1.37
2018-01-02T04:15:16.984Z,0.93
2018-01-02T04:17:44.403Z,0.90
2018-01-02T04:20:11.841Z,1.10
2018-01-02T04:22:40.022Z,1.00
2018-01-02T04:25:07.446Z,1.03
2018-01-02T04:27:34.872Z,1.10
2018-01-02T04:30:02.314Z,1.00
2018-01-02T04:32:29.727Z,0.93
2018-01-02T04:34:57.922Z,1.20
2018-01-02T04:37:25.351Z,0.83
2018-01-02T04:39:52.780Z,1.77
2018-01-02T04:42:20.209Z,1.20
2018-01-02T04:44:47.631Z,2.43
2018-01-02T04:47:15.815Z,0.90
2018-01-02T04:49:44.016Z,1.13
2018-01-02T04:52:11.522Z,1.00
2018-01-02T04:54:38.990Z,0.93
2018-01-02T04:57:06.416Z,0.80
2018-01-02T04:59:33.851Z,1.00
2018-01-02T05:02:01.267Z,1.00
2018-01-02T05:04:29.464Z,1.20
2018-01-02T05:06:56.887Z,1.40
2018-01-02T05:09:24.314Z,1.00
2018-01-02T05:11:51.751Z,1.70
2018-01-02T05:14:19.175Z,0.90
2018-01-02T05:16:47.359Z,0.80
2018-01-02T05:19:14.782Z,0.90
2018-01-02T05:21:42.239Z,0.80
2018-01-02T05:24:09.667Z,1.00
2018-01-02T05:26:37.083Z,1.23
2018-01-02T05:29:04.525Z,0.60
2018-01-02T05:31:31.945Z,0.70
2018-01-02T05:33:59.379Z,0.90
2018-01-02T05:36:26.811Z,0.97
2018-01-02T05:38:55.021Z,0.73
2018-01-02T05:41:22.440Z,0.70
2018-01-02T05:43:50.623Z,0.77
2018-01-02T05:46:18.055Z,0.90
2018-01-02T05:48:46.239Z,0.70
2018-01-02T05:51:14.448Z,0.80
2018-01-02T05:53:41.862Z,0.83
2018-01-02T05:56:10.059Z,1.00
2018-01-02T05:58:37.483Z,0.80
2018-01-02T06:01:04.907Z,1.10
2018-01-02T06:03:32.330Z,1.10
2018-01-02T06:05:59.757Z,1.20
2018-01-02T06:08:27.952Z,0.80
2018-01-02T06:10:56.159Z,0.80
2018-01-02T06:13:23.586Z,0.90
2018-01-02T06:15:51.782Z,0.67
2018-01-02T06:18:19.207Z,0.80
2018-01-02T06:20:47.396Z,0.90
2018-01-02T06:23:14.810Z,0.70
2018-01-02T06:25:42.240Z,0.93
2018-01-02T06:28:09.658Z,0.70
2018-01-02T06:30:37.863Z,0.80
2018-01-02T06:33:05.282Z,0.70
2018-01-02T06:35:33.474Z,0.90
2018-01-02T06:38:00.894Z,1.03
2018-01-02T06:40:28.328Z,0.80
2018-01-02T06:42:55.747Z,0.80
2018-01-02T06:45:23.171Z,0.80
2018-01-02T06:47:51.355Z,1.00
2018-01-02T06:50:19.555Z,0.97
2018-01-02T06:52:46.976Z,0.90
2018-01-02T06:55:14.402Z,0.80
2018-01-02T06:57:41.826Z,1.30
2018-01-02T07:00:09.247Z,0.80
2018-01-02T07:02:37.432Z,0.97
2018-01-02T07:05:05.619Z,0.70
2018-01-02T07:07:33.039Z,1.07
2018-01-02T07:10:00.491Z,1.10
2018-01-02T07:12:27.904Z,0.80
2018-01-02T07:14:55.320Z,0.97
2018-01-02T07:17:22.749Z,0.80
2018-01-02T07:19:50.222Z,0.87
2018-01-02T07:22:17.651Z,0.90
2018-01-02T07:24:45.070Z,0.80
2018-01-02T07:27:12.499Z,0.80
2018-01-02T07:29:39.915Z,0.87
2018-01-02T07:32:07.343Z,0.93
2018-01-02T07:34:34.768Z,0.80
2018-01-02T07:37:02.196Z,0.70
2018-01-02T07:39:29.617Z,0.60
2018-01-02T07:41:57.044Z,0.70
2018-01-02T07:44:24.455Z,0.77
2018-01-02T07:46:51.896Z,0.73
2018-01-02T07:49:19.314Z,0.90
2018-01-02T07:51:46.869Z,0.80
2018-01-02T07:54:14.282Z,0.70
2018-01-02T07:56:41.784Z,0.90
2018-01-02T07:59:09.296Z,0.90
2018-01-02T08:01:36.724Z,0.70
2018-01-02T08:04:04.910Z,0.70
2018-01-02T08:06:33.375Z,0.90
2018-01-02T08:09:01.631Z,0.70
2018-01-02T08:11:29.046Z,1.17
2018-01-02T08:13:56.515Z,1.10
2018-01-02T08:16:23.920Z,0.90
2018-01-02T08:18:52.112Z,0.83
2018-01-02T08:21:19.537Z,0.80
2018-01-02T08:23:46.964Z,0.70
2018-01-02T08:26:14.382Z,0.80
2018-01-02T08:28:41.817Z,0.80
2018-01-02T08:31:10.016Z,1.17
2018-01-02T08:33:37.435Z,0.90
2018-01-02T08:36:04.861Z,0.90
2018-01-02T08:38:32.293Z,0.80
2018-01-02T08:40:59.764Z,1.20
2018-01-02T08:43:27.179Z,1.13
2018-01-02T08:45:55.386Z,1.23
2018-01-02T08:48:22.811Z,0.90
2018-01-02T08:50:50.995Z,1.40
2018-01-02T08:53:18.416Z,1.23
2018-01-02T08:55:45.839Z,0.97
2018-01-02T08:58:13.267Z,1.20
2018-01-02T09:00:40.687Z,1.50
2018-01-02T09:03:08.121Z,1.10
2018-01-02T09:05:35.541Z,1.10
2018-01-02T09:08:02.982Z,1.63
2018-01-02T09:10:31.172Z,1.07
2018-01-02T09:12:58.593Z,1.33
2018-01-02T09:15:26.015Z,1.10
2018-01-02T09:17:53.435Z,1.30
2018-01-02T09:20:20.860Z,1.30
2018-01-02T09:22:48.289Z,0.93
2018-01-02T09:25:15.715Z,2.03
2018-01-02T09:27:43.130Z,1.23
2018-01-02T09:30:10.566Z,1.20
2018-01-02T09:32:37.988Z,0.93
2018-01-02T09:35:05.407Z,1.27
2018-01-02T09:37:33.598Z,1.27
2018-01-02T09:40:01.799Z,1.53
2018-01-02T09:42:29.291Z,1.50
2018-01-02T09:44:56.719Z,1.00
2018-01-02T09:47:24.224Z,1.20
2018-01-02T09:49:51.693Z,1.03
2018-01-02T09:52:20.904Z,1.33
2018-01-02T09:54:49.103Z,1.33
2018-01-02T09:57:16.782Z,1.20
2018-01-02T09:59:44.300Z,1.30
2018-01-02T10:02:12.487Z,1.20
2018-01-02T10:04:39.911Z,1.60
2018-01-02T10:07:07.343Z,1.17
2018-01-02T10:09:35.470Z,1.07
2018-01-02T10:12:02.916Z,1.23
2018-01-02T10:14:31.122Z,1.20
2018-01-02T10:16:58.543Z,1.10
2018-01-02T10:19:26.738Z,1.10
2018-01-02T10:21:54.154Z,1.63
2018-01-02T10:24:21.589Z,1.40
2018-01-02T10:26:49.042Z,1.10
2018-01-02T10:29:16.455Z,1.07
2018-01-02T10:31:43.883Z,1.00
2018-01-02T10:34:11.320Z,1.20
2018-01-02T10:36:38.749Z,1.30
2018-01-02T10:39:06.176Z,1.13
2018-01-02T10:41:34.377Z,1.20
2018-01-02T10:44:01.797Z,1.00
2018-01-02T10:46:29.998Z,1.23
2018-01-02T10:48:57.415Z,1.40
2018-01-02T10:51:24.850Z,1.13
2018-01-02T10:53:52.282Z,1.10
2018-01-02T10:56:20.715Z,1.07
2018-01-02T10:58:48.903Z,1.97
2018-01-02T11:01:22.935Z,1.00
2018-01-02T11:03:50.355Z,1.20
2018-01-02T11:06:17.811Z,1.33
2018-01-02T11:08:45.240Z,1.53
2018-01-02T11:11:18.359Z,1.10
2018-01-02T11:13:47.686Z,1.40
2018-01-02T11:16:15.114Z,1.10
2018-01-02T11:18:42.540Z,0.80
2018-01-02T11:21:09.977Z,1.60
2018-01-02T11:23:37.395Z,1.17
2018-01-02T11:26:05.589Z,1.00
2018-01-02T11:28:33.051Z,1.13
2018-01-02T11:31:00.454Z,0.90
2018-01-02T11:33:28.853Z,0.90
2018-01-02T11:35:56.287Z,1.20
2018-01-02T11:38:23.718Z,1.07
2018-01-02T11:40:53.077Z,0.90
2018-01-02T11:43:21.263Z,1.20
2018-01-02T11:45:49.463Z,1.13
2018-01-02T11:48:16.892Z,1.50
2018-01-02T11:50:45.089Z,1.20
2018-01-02T11:53:12.512Z,1.10
2018-01-02T11:55:40.718Z,1.50
2018-01-02T11:58:09.152Z,1.47
2018-01-02T12:00:36.611Z,1.10
2018-01-02T12:03:04.039Z,1.10
2018-01-02T12:05:31.459Z,1.30
2018-01-02T12:07:58.883Z,1.20
2018-01-02T12:10:26.311Z,1.53
2018-01-02T12:12:54.499Z,1.10
2018-01-02T12:15:21.920Z,1.17
2018-01-02T12:17:49.346Z,1.30
2018-01-02T12:20:17.540Z,1.57
2018-01-02T12:22:44.980Z,0.90
2018-01-02T12:25:13.163Z,1.30
2018-01-02T12:27:40.694Z,0.90
2018-01-02T12:30:08.166Z,1.20
2018-01-02T12:32:35.595Z,1.03
2018-01-02T12:35:03.017Z,1.17
2018-01-02T12:37:30.524Z,1.13
2018-01-02T12:39:58.012Z,1.00
2018-01-02T12:42:26.191Z,1.20
2018-01-02T12:44:53.690Z,1.70
2018-01-02T12:47:21.162Z,2.13
2018-01-02T12:49:48.984Z,1.07
2018-01-02T12:52:16.466Z,1.07
2018-01-02T12:54:43.877Z,1.10
2018-01-02T12:57:12.132Z,1.00
2018-01-02T12:59:39.552Z,1.33
2018-01-02T13:02:07.048Z,1.17
2018-01-02T13:04:34.566Z,1.27
2018-01-02T13:07:03.090Z,1.33
2018-01-02T13:09:30.540Z,1.60
2018-01-02T13:11:57.968Z,1.20
2018-01-02T13:14:25.467Z,1.30
2018-01-02T13:16:53.665Z,1.37
2018-01-02T13:19:21.090Z,1.90
2018-01-02T13:21:48.519Z,1.50
2018-01-02T13:24:15.934Z,1.20
2018-01-02T13:26:43.363Z,1.87
2018-01-02T13:29:10.811Z,1.37
2018-01-02T13:31:38.235Z,1.10
2018-01-02T13:34:05.660Z,1.20
2018-01-02T13:36:33.087Z,1.07
2018-01-02T13:39:00.519Z,1.30
2018-01-02T13:41:28.007Z,1.23
2018-01-02T13:43:57.298Z,1.33
2018-01-02T13:46:24.719Z,1.40
2018-01-02T13:48:52.152Z,1.20
2018-01-02T13:51:20.109Z,1.43
2018-01-02T13:53:47.571Z,1.10
2018-01-02T13:56:14.983Z,1.10
2018-01-02T13:58:42.431Z,1.33
2018-01-02T14:01:09.847Z,2.00
2018-01-02T14:03:37.276Z,1.50
2018-01-02T14:06:05.454Z,1.53
2018-01-02T14:08:33.715Z,1.47
2018-01-02T14:11:01.130Z,3.97
2018-01-02T14:13:29.171Z,2.43
2018-01-02T14:15:56.658Z,2.50
2018-01-02T14:18:24.075Z,2.63
2018-01-02T14:20:52.262Z,1.87
2018-01-02T14:23:19.688Z,1.73
2018-01-02T14:25:47.147Z,1.60
2018-01-02T14:28:14.622Z,1.73
2018-01-02T14:31:01.296Z,1.17
2018-01-02T14:33:33.496Z,1.30
2018-01-02T14:36:01.757Z,1.90
2018-01-02T14:38:29.171Z,1.43
2018-01-02T14:40:56.596Z,1.30
2018-01-02T14:43:24.028Z,1.70
2018-01-02T14:45:51.463Z,1.70
2018-01-02T14:48:18.930Z,2.07
2018-01-02T14:50:46.348Z,1.53
2018-01-02T14:53:13.778Z,1.53
2018-01-02T14:55:41.959Z,1.20
2018-01-02T14:58:09.547Z,1.87
2018-01-02T15:00:37.964Z,1.30
2018-01-02T15:03:05.442Z,1.70
2018-01-02T15:05:33.709Z,1.43
2018-01-02T15:08:01.988Z,1.30
2018-01-02T15:10:30.254Z,1.30
2018-01-02T15:12:57.685Z,1.47
2018-01-02T15:15:25.115Z,1.30
2018-01-02T15:17:52.628Z,1.60
2018-01-02T15:20:20.079Z,1.40
2018-01-02T15:22:47.552Z,1.90
2018-01-02T15:25:15.815Z,2.00
2018-01-02T15:27:43.323Z,2.73
2018-01-02T15:30:10.749Z,2.53
2018-01-02T15:32:38.939Z,1.83
2018-01-02T15:35:06.478Z,3.60
2018-01-02T15:37:33.922Z,1.90
2018-01-02T15:40:01.396Z,2.20
2018-01-02T15:42:28.839Z,1.97
2018-01-02T15:44:56.291Z,3.43
2018-01-02T15:47:23.802Z,4.43
2018-01-02T15:49:51.207Z,3.10
2018-01-02T15:52:18.636Z,2.50
2018-01-02T15:54:46.062Z,2.37
2018-01-02T15:57:13.580Z,2.53
2018-01-02T15:59:40.999Z,2.30
2018-01-02T16:02:08.463Z,2.70
2018-01-02T16:04:35.963Z,2.50
2018-01-02T16:07:04.221Z,3.00
2018-01-02T16:09:31.650Z,2.27
2018-01-02T16:11:59.124Z,2.40
2018-01-02T16:14:26.644Z,2.73
2018-01-02T16:16:54.120Z,2.83
2018-01-02T16:19:21.570Z,2.63
2018-01-02T16:21:49.083Z,2.30
2018-01-02T16:24:16.554Z,2.33
2018-01-02T16:26:44.841Z,2.60
2018-01-02T16:29:12.258Z,3.07
2018-01-02T16:31:39.721Z,2.33
2018-01-02T16:34:07.180Z,3.07
2018-01-02T16:36:34.624Z,3.43
2018-01-02T16:39:02.057Z,2.83
2018-01-02T16:41:29.544Z,3.30
2018-01-02T16:43:57.008Z,3.10
2018-01-02T16:46:24.432Z,3.57
2018-01-02T16:48:51.851Z,2.97
2018-01-02T16:51:19.279Z,3.93
2018-01-02T16:53:46.741Z,4.33
2018-01-02T16:56:14.159Z,5.53
2018-01-02T16:58:41.651Z,3.60
2018-01-02T17:01:09.107Z,5.10
2018-01-02T17:03:36.566Z,4.20
2018-01-02T17:06:04.014Z,4.83
2018-01-02T17:08:31.497Z,4.93
2018-01-02T17:10:59.951Z,3.80
2018-01-02T17:13:27.426Z,4.10
2018-01-02T17:15:54.851Z,3.13
2018-01-02T17:18:22.336Z,3.10
2018-01-02T17:20:49.806Z,3.50
2018-01-02T17:23:17.178Z,3.10
2018-01-02T17:25:44.611Z,3.17
2018-01-02T17:28:12.026Z,4.13
2018-01-02T17:30:39.459Z,4.30
2018-01-02T17:33:06.876Z,3.30
2018-01-02T17:35:34.309Z,4.00
2018-01-02T17:38:01.742Z,3.93
2018-01-02T17:40:29.170Z,4.43
2018-01-02T17:42:57.350Z,4.47
2018-01-02T17:45:24.783Z,4.07
2018-01-02T17:47:52.211Z,4.53
2018-01-02T17:50:19.649Z,4.20
2018-01-02T17:52:47.076Z,3.70
2018-01-02T17:55:14.502Z,3.50
2018-01-02T17:57:41.921Z,3.53
2018-01-02T18:00:09.350Z,3.60
2018-01-02T18:02:37.931Z,3.40
2018-01-02T18:05:06.106Z,4.20
2018-01-02T18:07:34.787Z,4.07
2018-01-02T18:10:03.028Z,4.53
2018-01-02T18:12:30.518Z,3.77
2018-01-02T18:14:57.985Z,4.10
2018-01-02T18:17:25.411Z,4.40
2018-01-02T18:19:52.859Z,3.23
2018-01-02T18:22:20.292Z,4.17
2018-01-02T18:24:47.707Z,5.67
2018-01-02T18:27:15.138Z,4.83
2018-01-02T18:29:54.299Z,4.00
2018-01-02T18:32:21.718Z,4.00
2018-01-02T18:34:49.954Z,4.20
2018-01-02T18:37:17.378Z,3.40
2018-01-02T18:39:45.650Z,3.73
2018-01-02T18:42:13.113Z,3.70
2018-01-02T18:44:41.358Z,3.50
2018-01-02T18:47:08.817Z,4.70
2018-01-02T18:49:37.052Z,5.60
2018-01-02T18:52:04.608Z,5.07
2018-01-02T18:54:32.035Z,4.67
2018-01-02T18:57:00.226Z,4.50
2018-01-02T18:59:27.650Z,3.70
2018-01-02T19:01:55.923Z,3.30
2018-01-02T19:04:23.350Z,4.33
2018-01-02T19:06:50.943Z,4.60
2018-01-02T19:09:19.772Z,4.33
2018-01-02T19:11:47.221Z,3.40
2018-01-02T19:14:14.651Z,3.97
2018-01-02T19:16:42.852Z,5.40
2018-01-02T19:19:10.272Z,4.23
2018-01-02T19:21:37.740Z,4.57
2018-01-02T19:24:05.932Z,3.87
2018-01-02T19:26:34.175Z,4.67
2018-01-02T19:29:01.614Z,4.00
2018-01-02T19:31:29.043Z,4.57
2018-01-02T19:33:56.501Z,3.80
2018-01-02T19:36:23.932Z,3.83
2018-01-02T19:38:52.319Z,4.83
2018-01-02T19:41:19.980Z,5.33
2018-01-02T19:43:48.210Z,3.80
2018-01-02T19:46:15.656Z,5.37
2018-01-02T19:48:43.959Z,5.13
2018-01-02T19:51:11.394Z,4.07
2018-01-02T19:53:38.872Z,4.63
2018-01-02T19:56:06.323Z,4.33
2018-01-02T19:58:33.750Z,5.17
2018-01-02T20:01:01.171Z,4.33
2018-01-02T20:03:28.603Z,4.40
2018-01-02T20:05:56.019Z,3.93
2018-01-02T20:08:23.459Z,4.10
2018-01-02T20:10:50.877Z,4.13
2018-01-02T20:13:18.301Z,6.10
2018-01-02T20:15:45.780Z,4.20
2018-01-02T20:18:19.027Z,4.30
2018-01-02T20:20:46.495Z,4.20
2018-01-02T20:23:13.918Z,5.70
2018-01-02T20:25:42.120Z,4.37
2018-01-02T20:28:09.638Z,4.40
2018-01-02T20:30:37.898Z,4.70
2018-01-02T20:33:05.332Z,4.60
2018-01-02T20:35:32.780Z,3.80
2018-01-02T20:38:00.217Z,5.00
2018-01-02T20:40:27.639Z,4.90
2018-01-02T20:42:55.827Z,5.53
2018-01-02T20:45:23.255Z,6.50
2018-01-02T20:47:50.687Z,5.73
2018-01-02T20:50:18.129Z,5.20
2018-01-02T20:52:45.552Z,6.90
2018-01-02T20:55:13.792Z,4.97
2018-01-02T20:57:41.266Z,5.37
2018-01-02T21:00:09.161Z,4.40
2018-01-02T21:02:36.702Z,5.63
2018-01-02T21:05:04.898Z,5.30
2018-01-02T21:07:32.422Z,4.30
2018-01-02T21:09:59.841Z,5.87
2018-01-02T21:12:27.278Z,6.57
2018-01-02T21:14:54.703Z,5.70
2018-01-02T21:17:22.914Z,4.00
2018-01-02T21:19:50.335Z,4.47
2018-01-02T21:22:18.536Z,6.20
2018-01-02T21:24:45.994Z,3.77
2018-01-02T21:27:13.435Z,5.33
2018-01-02T21:29:41.882Z,4.30
2018-01-02T21:32:09.314Z,3.27
2018-01-02T21:34:36.734Z,2.93
2018-01-02T21:37:04.177Z,2.50
2018-01-02T21:39:32.362Z,2.37
2018-01-02T21:41:59.786Z,3.83
2018-01-02T21:44:27.221Z,2.37
2018-01-02T21:46:54.635Z,2.57
2018-01-02T21:49:22.068Z,2.00
2018-01-02T21:51:49.552Z,3.37
2018-01-02T21:54:17.732Z,2.27
2018-01-02T21:56:45.144Z,2.83
2018-01-02T21:59:12.571Z,3.10
2018-01-02T22:01:39.995Z,1.70
2018-01-02T22:04:07.419Z,1.77
2018-01-02T22:06:34.835Z,2.33
2018-01-02T22:09:02.263Z,2.70
2018-01-02T22:11:29.687Z,2.10
2018-01-02T22:13:57.318Z,2.27
2018-01-02T22:16:24.739Z,1.60
2018-01-02T22:18:52.163Z,1.47
2018-01-02T22:21:19.591Z,2.00
2018-01-02T22:23:47.022Z,2.00
2018-01-02T22:26:14.443Z,2.10
2018-01-02T22:28:42.640Z,1.90
2018-01-02T22:31:10.048Z,2.87
2018-01-02T22:33:37.475Z,3.07
2018-01-02T22:36:04.894Z,2.20
2018-01-02T22:38:33.102Z,2.20
2018-01-02T22:41:00.529Z,2.27
2018-01-02T22:43:28.714Z,2.33
2018-01-02T22:45:56.135Z,2.30
2018-01-02T22:48:23.559Z,3.57
2018-01-02T22:50:50.987Z,2.63
2018-01-02T22:53:18.411Z,3.37
2018-01-02T22:55:45.826Z,2.77
2018-01-02T22:58:13.267Z,2.30
2018-01-02T23:00:40.679Z,2.70
2018-01-02T23:03:08.107Z,2.90
2018-01-02T23:05:35.544Z,2.90
2018-01-02T23:08:02.968Z,2.30
2018-01-02T23:10:31.165Z,2.47
2018-01-02T23:12:58.573Z,2.40
2018-01-02T23:15:26.039Z,2.27
2018-01-02T23:17:53.465Z,3.70
2018-01-02T23:20:20.883Z,2.43
2018-01-02T23:22:48.306Z,2.80
2018-01-02T23:25:15.731Z,2.47
2018-01-02T23:27:43.181Z,3.50
2018-01-02T23:30:10.613Z,3.67
2018-01-02T23:32:38.043Z,2.77
2018-01-02T23:35:06.236Z,2.70
2018-01-02T23:37:33.663Z,2.67
2018-01-02T23:40:01.081Z,2.07
2018-01-02T23:42:29.274Z,2.60
2018-01-02T23:44:56.711Z,2.33
2018-01-02T23:47:24.127Z,1.77
2018-01-02T23:49:52.334Z,2.20
2018-01-02T23:52:19.755Z,2.50
2018-01-02T23:54:47.947Z,2.40
2018-01-02T23:57:15.366Z,2.70
2018-01-02T23:59:42.786Z,2.20
